createdAt,value
2019-06-27T00:01:03.248Z,17.33
2019-06-27T00:03:30.598Z,12.70
2019-06-27T00:05:57.931Z,19.73
2019-06-27T00:08:25.392Z,13.40
2019-06-27T00:10:52.779Z,13.57
2019-06-27T00:13:20.104Z,13.93
2019-06-27T00:15:47.578Z,12.73
2019-06-27T00:18:15.071Z,16.00
2019-06-27T00:20:42.512Z,14.67
2019-06-27T00:23:10.304Z,14.33
2019-06-27T00:25:37.764Z,16.53
2019-06-27T00:28:08.086Z,13.70
2019-06-27T00:30:35.466Z,15.70
2019-06-27T00:33:02.985Z,13.30
2019-06-27T00:35:30.394Z,13.40
2019-06-27T00:37:57.737Z,12.10
2019-06-27T00:40:25.248Z,18.00
2019-06-27T00:42:52.926Z,15.63
2019-06-27T00:45:20.435Z,14.03
2019-06-27T00:47:47.769Z,15.50
2019-06-27T00:50:15.358Z,16.20
2019-06-27T00:52:42.712Z,14.83
2019-06-27T00:55:10.242Z,14.67
2019-06-27T00:57:37.652Z,16.73
2019-06-27T01:00:06.943Z,23.07
2019-06-27T01:02:34.379Z,14.03
2019-06-27T01:05:02.182Z,13.57
2019-06-27T01:07:29.570Z,14.10
2019-06-27T01:09:56.856Z,14.63
2019-06-27T01:12:24.195Z,15.57
2019-06-27T01:14:51.654Z,15.93
2019-06-27T01:17:18.988Z,15.53
2019-06-27T01:19:46.366Z,15.00
2019-06-27T01:22:13.724Z,13.97
2019-06-27T01:24:41.126Z,15.93
2019-06-27T01:27:08.431Z,17.50
2019-06-27T01:29:35.870Z,15.87
2019-06-27T01:32:03.485Z,18.23
2019-06-27T01:34:30.806Z,16.70
2019-06-27T01:36:58.214Z,16.63
2019-06-27T01:39:25.556Z,14.27
2019-06-27T01:41:52.961Z,16.53
2019-06-27T01:44:40.189Z,16.97
2019-06-27T01:47:07.892Z,14.10
2019-06-27T01:49:35.347Z,14.37
2019-06-27T01:52:02.735Z,15.90
2019-06-27T01:54:30.136Z,15.67
2019-06-27T01:56:57.583Z,17.93
2019-06-27T01:59:24.965Z,17.67
2019-06-27T02:01:52.552Z,18.67
2019-06-27T02:04:20.032Z,16.53
2019-06-27T02:06:47.455Z,14.00
2019-06-27T02:09:14.837Z,17.20
2019-06-27T02:11:42.231Z,16.03
2019-06-27T02:14:09.677Z,16.80
2019-06-27T02:16:37.057Z,14.87
2019-06-27T02:19:04.508Z,18.30
2019-06-27T02:21:32.000Z,16.03
2019-06-27T02:23:59.521Z,17.03
2019-06-27T02:26:26.900Z,17.30
2019-06-27T02:28:54.363Z,15.23
2019-06-27T02:31:21.760Z,18.23
2019-06-27T02:33:49.200Z,16.13
2019-06-27T02:36:16.586Z,18.40
2019-06-27T02:38:44.073Z,17.57
2019-06-27T02:41:11.428Z,20.63
2019-06-27T02:43:38.858Z,16.80
2019-06-27T02:46:06.257Z,16.33
2019-06-27T02:48:33.705Z,18.43
2019-06-27T02:51:01.197Z,18.73
2019-06-27T02:53:28.556Z,15.63
2019-06-27T02:55:56.038Z,15.83
2019-06-27T02:58:30.852Z,16.60
2019-06-27T03:00:52.761Z,16.40
2019-06-27T03:03:20.167Z,23.27
2019-06-27T03:05:47.632Z,18.83
2019-06-27T03:08:15.094Z,16.10
2019-06-27T03:10:42.549Z,15.27
2019-06-27T03:13:10.072Z,17.27
2019-06-27T03:15:37.525Z,17.73
2019-06-27T03:18:04.995Z,19.50
2019-06-27T03:20:32.461Z,19.00
2019-06-27T03:23:01.075Z,17.80
2019-06-27T03:25:28.521Z,18.40
2019-06-27T03:27:55.893Z,17.83
2019-06-27T03:30:23.296Z,17.17
2019-06-27T03:32:50.790Z,20.30
2019-06-27T03:35:18.263Z,17.57
2019-06-27T03:37:45.750Z,16.53
2019-06-27T03:40:14.432Z,17.60
2019-06-27T03:42:41.932Z,18.27
2019-06-27T03:45:14.901Z,20.13
2019-06-27T03:47:38.649Z,18.37
2019-06-27T03:50:06.110Z,17.43
2019-06-27T03:52:33.535Z,18.93
2019-06-27T03:55:00.999Z,18.70
2019-06-27T03:57:28.473Z,19.60
2019-06-27T03:59:55.872Z,19.67
2019-06-27T04:02:23.302Z,18.33
2019-06-27T04:04:50.811Z,16.40
2019-06-27T04:07:18.270Z,17.87
2019-06-27T04:09:45.763Z,17.80
2019-06-27T04:12:13.248Z,19.63
2019-06-27T04:14:40.680Z,19.27
2019-06-27T04:17:08.186Z,19.33
2019-06-27T04:19:35.676Z,18.57
2019-06-27T04:22:03.216Z,21.93
2019-06-27T04:24:30.747Z,20.73
2019-06-27T04:26:58.194Z,27.60
2019-06-27T04:29:33.629Z,18.73
2019-06-27T04:31:54.880Z,20.27
2019-06-27T04:34:22.341Z,23.33
2019-06-27T04:36:49.802Z,21.20
2019-06-27T04:39:17.319Z,24.60
2019-06-27T04:41:44.740Z,21.43
2019-06-27T04:44:12.111Z,24.70
2019-06-27T04:46:39.638Z,23.00
2019-06-27T04:49:12.767Z,22.20
2019-06-27T04:51:36.413Z,21.70
2019-06-27T04:54:04.218Z,20.93
2019-06-27T04:56:31.707Z,21.63
2019-06-27T04:58:59.481Z,26.90
2019-06-27T05:01:26.988Z,20.93
2019-06-27T05:03:54.471Z,21.43
2019-06-27T05:06:21.945Z,23.10
2019-06-27T05:08:49.405Z,23.20
2019-06-27T05:11:16.851Z,25.80
2019-06-27T05:13:44.320Z,20.73
2019-06-27T05:16:11.782Z,23.03
2019-06-27T05:18:39.252Z,22.37
2019-06-27T05:21:06.666Z,24.07
2019-06-27T05:23:34.448Z,24.40
2019-06-27T05:26:01.893Z,25.87
2019-06-27T05:28:29.346Z,24.20
2019-06-27T05:30:56.863Z,28.40
2019-06-27T05:33:24.284Z,28.73
2019-06-27T05:35:52.092Z,26.07
2019-06-27T05:38:19.491Z,26.50
2019-06-27T05:40:47.309Z,29.47
2019-06-27T05:43:14.737Z,25.63
2019-06-27T05:45:42.443Z,21.97
2019-06-27T05:48:09.917Z,24.90
2019-06-27T05:50:37.425Z,24.23
2019-06-27T05:53:04.937Z,26.10
2019-06-27T05:55:32.369Z,25.07
2019-06-27T05:57:59.871Z,26.27
2019-06-27T06:00:29.515Z,30.90
2019-06-27T06:02:56.561Z,23.80
2019-06-27T06:05:24.061Z,27.17
2019-06-27T06:07:51.501Z,25.50
2019-06-27T06:10:18.979Z,25.63
2019-06-27T06:12:46.456Z,23.87
2019-06-27T06:15:13.910Z,23.13
2019-06-27T06:17:41.396Z,22.53
2019-06-27T06:20:09.402Z,25.77
2019-06-27T06:22:37.278Z,23.17
2019-06-27T06:25:05.432Z,22.90
2019-06-27T06:27:32.943Z,22.73
2019-06-27T06:30:00.580Z,21.43
2019-06-27T06:32:28.064Z,20.83
2019-06-27T06:34:55.594Z,21.53
2019-06-27T06:37:23.096Z,25.53
2019-06-27T06:39:50.633Z,21.77
2019-06-27T06:42:18.180Z,19.73
2019-06-27T06:44:45.700Z,20.13
2019-06-27T06:47:13.215Z,20.60
2019-06-27T06:49:40.691Z,20.50
2019-06-27T06:52:08.175Z,18.50
2019-06-27T06:54:35.678Z,18.23
2019-06-27T06:57:03.179Z,20.87
2019-06-27T06:59:30.667Z,20.17
2019-06-27T07:01:58.150Z,20.23
2019-06-27T07:04:26.012Z,19.73
2019-06-27T07:06:53.408Z,19.07
2019-06-27T07:09:20.815Z,20.07
2019-06-27T07:11:48.403Z,17.90
2019-06-27T07:14:15.776Z,20.13
2019-06-27T07:16:43.264Z,18.27
2019-06-27T07:19:10.728Z,17.73
2019-06-27T07:21:38.222Z,18.43
2019-06-27T07:24:05.550Z,19.00
2019-06-27T07:26:33.069Z,20.07
2019-06-27T07:29:00.545Z,18.53
2019-06-27T07:31:28.029Z,18.87
2019-06-27T07:33:55.516Z,19.37
2019-06-27T07:36:22.983Z,18.77
2019-06-27T07:38:50.397Z,17.57
2019-06-27T07:41:17.807Z,19.50
2019-06-27T07:43:45.217Z,17.63
2019-06-27T07:46:24.597Z,17.90
2019-06-27T07:48:42.244Z,17.77
2019-06-27T07:51:09.688Z,18.40
2019-06-27T07:53:37.077Z,17.70
2019-06-27T07:56:04.529Z,17.50
2019-06-27T07:58:31.888Z,20.40
2019-06-27T08:00:59.360Z,22.70
2019-06-27T08:03:26.846Z,19.67
2019-06-27T08:05:54.529Z,17.37
2019-06-27T08:08:22.076Z,18.43
2019-06-27T08:10:49.446Z,18.60
2019-06-27T08:13:16.921Z,17.27
2019-06-27T08:15:44.425Z,19.20
2019-06-27T08:18:11.890Z,18.93
2019-06-27T08:20:39.379Z,17.27
2019-06-27T08:23:06.902Z,18.70
2019-06-27T08:25:34.403Z,18.60
2019-06-27T08:28:01.771Z,19.63
2019-06-27T08:30:29.578Z,19.17
2019-06-27T08:32:57.062Z,17.87
2019-06-27T08:35:24.726Z,17.73
2019-06-27T08:37:52.132Z,18.53
2019-06-27T08:40:20.256Z,18.53
2019-06-27T08:42:47.726Z,16.20
2019-06-27T08:45:15.149Z,19.43
2019-06-27T08:47:42.643Z,18.87
2019-06-27T08:50:11.016Z,17.23
2019-06-27T08:52:38.476Z,18.87
2019-06-27T08:55:06.054Z,17.27
2019-06-27T08:57:33.512Z,16.90
2019-06-27T09:00:00.908Z,19.90
2019-06-27T09:02:28.341Z,18.73
2019-06-27T09:04:55.746Z,18.53
2019-06-27T09:07:23.229Z,19.03
2019-06-27T09:09:50.712Z,19.20
2019-06-27T09:12:18.177Z,20.73
2019-06-27T09:14:45.580Z,17.93
2019-06-27T09:17:13.070Z,18.57
2019-06-27T09:19:40.829Z,20.40
2019-06-27T09:22:08.335Z,19.43
2019-06-27T09:24:35.834Z,19.50
2019-06-27T09:27:03.392Z,19.77
2019-06-27T09:29:30.884Z,23.23
2019-06-27T09:31:58.270Z,20.07
2019-06-27T09:34:25.738Z,20.77
2019-06-27T09:36:53.128Z,19.80
2019-06-27T09:39:21.146Z,21.80
2019-06-27T09:41:48.554Z,21.03
2019-06-27T09:44:16.278Z,20.63
2019-06-27T09:46:43.782Z,24.50
2019-06-27T09:49:11.224Z,22.10
2019-06-27T09:51:38.610Z,21.47
2019-06-27T09:54:06.121Z,23.67
2019-06-27T09:56:33.609Z,22.43
2019-06-27T09:59:01.098Z,22.87
2019-06-27T10:01:28.577Z,22.73
2019-06-27T10:03:56.028Z,22.70
2019-06-27T10:06:26.175Z,22.03
2019-06-27T10:08:52.688Z,21.70
2019-06-27T10:11:20.077Z,22.27
2019-06-27T10:13:47.585Z,21.17
2019-06-27T10:16:15.032Z,20.80
2019-06-27T10:18:42.406Z,21.90
2019-06-27T10:21:09.905Z,23.50
2019-06-27T10:23:37.372Z,22.13
2019-06-27T10:26:04.949Z,20.70
2019-06-27T10:28:32.314Z,21.40
2019-06-27T10:30:59.784Z,21.43
2019-06-27T10:33:27.251Z,21.67
2019-06-27T10:35:54.740Z,20.37
2019-06-27T10:38:22.214Z,19.47
2019-06-27T10:40:49.613Z,21.13
2019-06-27T10:43:17.088Z,20.17
2019-06-27T10:45:44.588Z,20.83
2019-06-27T10:48:12.824Z,19.93
2019-06-27T10:50:40.396Z,20.83
2019-06-27T10:53:07.900Z,19.23
2019-06-27T10:55:35.706Z,20.17
2019-06-27T10:58:03.214Z,20.67
2019-06-27T11:00:32.133Z,20.27
2019-06-27T11:03:14.304Z,20.17
2019-06-27T11:05:29.720Z,17.83
2019-06-27T11:07:57.183Z,17.73
2019-06-27T11:10:24.821Z,18.13
2019-06-27T11:12:52.292Z,18.73
2019-06-27T11:15:19.818Z,17.10
2019-06-27T11:17:47.259Z,18.77
2019-06-27T11:20:17.796Z,19.50
2019-06-27T11:22:46.230Z,20.00
2019-06-27T11:25:14.558Z,20.73
2019-06-27T11:27:42.053Z,20.83
2019-06-27T11:30:10.504Z,19.73
2019-06-27T11:32:38.057Z,19.03
2019-06-27T11:35:06.010Z,17.53
2019-06-27T11:37:33.840Z,18.83
2019-06-27T11:40:01.371Z,18.27
2019-06-27T11:42:30.413Z,18.47
2019-06-27T11:44:57.979Z,19.90
2019-06-27T11:47:28.475Z,19.83
2019-06-27T11:49:56.020Z,19.77
2019-06-27T11:52:26.513Z,20.60
2019-06-27T11:54:54.053Z,19.03
2019-06-27T11:57:22.005Z,19.77
2019-06-27T11:59:49.999Z,18.17
2019-06-27T12:02:17.613Z,18.77
2019-06-27T12:04:45.164Z,17.33
2019-06-27T12:07:12.843Z,17.53
2019-06-27T12:09:40.489Z,17.00
2019-06-27T12:12:07.952Z,16.93
2019-06-27T12:14:35.685Z,17.20
2019-06-27T12:17:03.529Z,17.50
2019-06-27T12:19:31.525Z,18.43
2019-06-27T12:22:00.450Z,17.57
2019-06-27T12:24:28.133Z,17.50
2019-06-27T12:27:09.201Z,16.70
2019-06-27T12:29:36.972Z,16.63
2019-06-27T12:32:04.478Z,17.37
2019-06-27T12:34:32.071Z,17.27
2019-06-27T12:36:59.604Z,16.33
2019-06-27T12:39:27.169Z,16.57
2019-06-27T12:41:55.171Z,18.23
2019-06-27T12:44:25.322Z,18.37
2019-06-27T12:46:52.812Z,17.47
2019-06-27T12:49:44.452Z,17.27
2019-06-27T12:51:54.762Z,16.43
2019-06-27T12:54:23.388Z,17.93
2019-06-27T12:56:50.904Z,16.90
2019-06-27T12:59:18.505Z,16.60
2019-06-27T13:01:46.396Z,17.00
2019-06-27T13:04:23.336Z,16.97
2019-06-27T13:06:45.047Z,15.83
2019-06-27T13:09:12.544Z,16.20
2019-06-27T13:11:40.032Z,17.70
2019-06-27T13:14:07.507Z,15.10
2019-06-27T13:16:35.009Z,15.60
2019-06-27T13:19:04.906Z,14.60
2019-06-27T13:21:32.390Z,16.33
2019-06-27T13:23:59.945Z,17.63
2019-06-27T13:26:27.435Z,17.40
2019-06-27T13:28:54.987Z,16.00
2019-06-27T13:31:22.552Z,17.40
2019-06-27T13:33:50.114Z,17.13
2019-06-27T13:36:18.953Z,17.63
2019-06-27T13:38:47.436Z,16.70
2019-06-27T13:41:15.204Z,15.87
2019-06-27T13:43:42.755Z,17.00
2019-06-27T13:46:10.241Z,16.97
2019-06-27T13:48:40.343Z,17.10
2019-06-27T13:51:07.865Z,16.53
2019-06-27T13:53:35.753Z,17.30
2019-06-27T13:56:03.234Z,17.07
2019-06-27T13:58:30.675Z,17.10
2019-06-27T14:00:58.246Z,16.53
2019-06-27T14:03:25.882Z,16.80
2019-06-27T14:05:53.320Z,14.93
2019-06-27T14:08:20.847Z,15.00
2019-06-27T14:10:48.347Z,15.40
2019-06-27T14:13:15.887Z,14.97
2019-06-27T14:15:43.553Z,14.90
2019-06-27T14:18:11.208Z,14.87
2019-06-27T14:20:40.129Z,16.30
2019-06-27T14:23:07.719Z,15.33
2019-06-27T14:25:35.501Z,16.67
2019-06-27T14:28:03.277Z,16.00
2019-06-27T14:30:30.835Z,17.53
2019-06-27T14:32:58.478Z,18.60
2019-06-27T14:35:25.981Z,19.27
2019-06-27T14:37:53.864Z,16.87
2019-06-27T14:40:22.162Z,16.50
2019-06-27T14:42:49.835Z,20.23
2019-06-27T14:45:18.057Z,18.13
2019-06-27T14:47:45.467Z,17.67
2019-06-27T14:50:13.109Z,16.77
2019-06-27T14:52:40.693Z,16.30
2019-06-27T14:55:08.337Z,16.53
2019-06-27T14:57:35.913Z,18.60
2019-06-27T15:00:04.631Z,16.83
2019-06-27T15:02:32.351Z,16.37
2019-06-27T15:04:59.949Z,16.43
2019-06-27T15:07:27.527Z,17.13
2019-06-27T15:09:55.081Z,17.03
2019-06-27T15:12:22.731Z,16.67
2019-06-27T15:14:51.104Z,16.07
2019-06-27T15:17:20.951Z,15.30
2019-06-27T15:19:48.520Z,15.40
2019-06-27T15:22:16.171Z,18.40
2019-06-27T15:24:44.011Z,16.47
2019-06-27T15:27:11.754Z,17.37
2019-06-27T15:29:39.245Z,16.30
2019-06-27T15:32:07.018Z,17.10
2019-06-27T15:34:35.911Z,17.53
2019-06-27T15:37:05.266Z,15.20
2019-06-27T15:39:32.849Z,15.77
2019-06-27T15:42:00.404Z,15.93
2019-06-27T15:44:28.219Z,14.20
2019-06-27T15:46:55.841Z,15.47
2019-06-27T15:49:23.402Z,15.60
2019-06-27T15:51:51.020Z,15.90
2019-06-27T15:54:18.673Z,15.13
2019-06-27T15:56:46.309Z,16.53
2019-06-27T15:59:13.864Z,15.53
2019-06-27T16:01:41.608Z,15.10
2019-06-27T16:04:09.222Z,14.00
2019-06-27T16:06:37.069Z,15.10
2019-06-27T16:09:05.557Z,15.43
2019-06-27T16:11:33.214Z,15.93
2019-06-27T16:14:00.749Z,14.03
2019-06-27T16:16:28.290Z,14.73
2019-06-27T16:18:55.818Z,15.10
2019-06-27T16:21:23.480Z,14.87
2019-06-27T16:23:51.035Z,15.10
2019-06-27T16:26:18.623Z,14.30
2019-06-27T16:28:46.307Z,14.03
2019-06-27T16:31:14.078Z,14.03
2019-06-27T16:33:41.873Z,12.80
2019-06-27T16:36:24.430Z,13.83
2019-06-27T16:38:38.874Z,13.20
2019-06-27T16:41:06.590Z,12.93
2019-06-27T16:43:34.411Z,10.97
2019-06-27T16:46:02.091Z,10.43
2019-06-27T16:48:30.063Z,10.20
2019-06-27T16:50:57.690Z,9.83
2019-06-27T16:53:25.608Z,10.03
2019-06-27T16:55:53.342Z,9.70
2019-06-27T16:58:21.635Z,8.40
2019-06-27T17:00:49.713Z,9.43
2019-06-27T17:03:23.292Z,8.20
2019-06-27T17:05:51.182Z,8.70
2019-06-27T17:08:18.779Z,8.80
2019-06-27T17:10:46.344Z,8.50
2019-06-27T17:13:14.060Z,8.00
2019-06-27T17:15:41.795Z,8.43
2019-06-27T17:18:09.327Z,7.73
2019-06-27T17:20:37.005Z,7.97
2019-06-27T17:23:05.529Z,8.40
2019-06-27T17:25:33.187Z,8.40
2019-06-27T17:28:00.799Z,7.90
2019-06-27T17:30:28.384Z,8.07
2019-06-27T17:32:57.747Z,8.90
2019-06-27T17:35:25.374Z,7.57
2019-06-27T17:37:52.885Z,7.40
2019-06-27T17:40:21.958Z,7.67
2019-06-27T17:42:49.996Z,7.30
2019-06-27T17:45:17.536Z,7.57
2019-06-27T17:47:45.119Z,7.63
2019-06-27T17:50:13.113Z,8.10
2019-06-27T17:52:40.836Z,8.40
2019-06-27T17:55:08.532Z,8.77
2019-06-27T17:57:36.006Z,9.90
2019-06-27T18:00:05.105Z,8.63
2019-06-27T18:02:33.089Z,9.27
2019-06-27T18:05:00.609Z,8.60
2019-06-27T18:07:28.111Z,9.67
2019-06-27T18:09:55.681Z,7.67
2019-06-27T18:12:23.468Z,8.13
2019-06-27T18:14:51.026Z,8.80
2019-06-27T18:17:32.403Z,8.63
2019-06-27T18:19:48.396Z,10.07
2019-06-27T18:22:16.348Z,8.83
2019-06-27T18:24:46.169Z,9.20
2019-06-27T18:27:16.688Z,9.70
2019-06-27T18:29:47.860Z,9.43
2019-06-27T18:32:13.809Z,9.30
2019-06-27T18:34:41.513Z,10.30
2019-06-27T18:37:09.176Z,10.43
2019-06-27T18:39:37.291Z,9.43
2019-06-27T18:42:04.708Z,9.47
2019-06-27T18:44:32.605Z,8.97
2019-06-27T18:47:00.236Z,8.47
2019-06-27T18:49:28.004Z,8.43
2019-06-27T18:52:00.107Z,7.40
2019-06-27T18:54:28.023Z,7.83
2019-06-27T18:56:55.594Z,5.73
2019-06-27T18:59:23.195Z,6.60
2019-06-27T19:01:50.963Z,6.37
2019-06-27T19:04:18.852Z,5.60
2019-06-27T19:06:46.629Z,5.13
2019-06-27T19:09:14.519Z,4.73
2019-06-27T19:11:42.119Z,4.53
2019-06-27T19:14:09.696Z,3.80
2019-06-27T19:16:37.370Z,3.50
2019-06-27T19:19:07.133Z,3.97
2019-06-27T19:21:57.204Z,3.87
2019-06-27T19:24:38.977Z,4.20
2019-06-27T19:27:06.726Z,3.73
2019-06-27T19:29:34.293Z,3.87
2019-06-27T19:32:01.854Z,4.13
2019-06-27T19:34:30.791Z,3.50
2019-06-27T19:36:58.373Z,10.20
2019-06-27T19:39:25.872Z,3.60
2019-06-27T19:41:56.830Z,3.47
2019-06-27T19:44:22.966Z,3.60
2019-06-27T19:46:50.510Z,2.80
2019-06-27T19:49:18.021Z,3.00
2019-06-27T19:51:45.557Z,3.47
2019-06-27T19:54:13.180Z,3.20
2019-06-27T19:56:40.799Z,2.90
2019-06-27T19:59:08.319Z,2.87
2019-06-27T20:01:35.853Z,2.70
2019-06-27T20:04:03.554Z,3.10
2019-06-27T20:06:31.106Z,2.43
2019-06-27T20:08:58.790Z,2.50
2019-06-27T20:11:26.438Z,3.07
2019-06-27T20:13:54.033Z,2.73
2019-06-27T20:16:21.984Z,2.20
2019-06-27T20:18:49.909Z,3.60
2019-06-27T20:21:17.884Z,3.00
2019-06-27T20:23:45.537Z,2.90
2019-06-27T20:26:13.074Z,3.43
2019-06-27T20:28:40.776Z,2.87
2019-06-27T20:31:09.628Z,2.77
2019-06-27T20:33:37.224Z,3.10
2019-06-27T20:36:04.846Z,3.33
2019-06-27T20:38:35.213Z,2.73
2019-06-27T20:41:02.223Z,2.60
2019-06-27T20:43:29.780Z,2.60
2019-06-27T20:45:57.815Z,2.87
2019-06-27T20:48:25.413Z,2.70
2019-06-27T20:50:52.930Z,2.47
2019-06-27T20:53:20.495Z,3.90
2019-06-27T20:55:48.082Z,2.60
2019-06-27T20:58:15.681Z,2.57
2019-06-27T21:00:43.375Z,2.27
2019-06-27T21:03:11.290Z,3.67
2019-06-27T21:05:38.886Z,2.40
2019-06-27T21:08:06.467Z,2.70
2019-06-27T21:10:34.105Z,2.47
2019-06-27T21:13:01.652Z,2.90
2019-06-27T21:15:29.251Z,3.93
2019-06-27T21:17:57.072Z,6.90
2019-06-27T21:20:25.212Z,12.87
2019-06-27T21:22:52.763Z,13.40
2019-06-27T21:25:20.561Z,9.40
2019-06-27T21:27:47.986Z,9.13
2019-06-27T21:30:16.896Z,10.33
2019-06-27T21:32:48.182Z,9.83
2019-06-27T21:35:14.281Z,11.83
2019-06-27T21:37:42.196Z,9.50
2019-06-27T21:40:10.136Z,6.50
2019-06-27T21:42:37.810Z,3.50
2019-06-27T21:45:05.878Z,3.13
2019-06-27T21:47:34.023Z,3.63
2019-06-27T21:50:01.510Z,3.93
2019-06-27T21:52:29.115Z,3.53
2019-06-27T21:54:56.685Z,3.30
2019-06-27T23:41:31.969Z,2.93
